Latest Weather Observations for Orbost

IDV60801

Issued at 12:22 pm EDT Friday 18 October 2019 (issued every 10 minutes, with the page automatically refreshed every 10 minutes)

About weather observations | Map of weather stations | Latest weather observations for VIC | Other Formats
Station Details ID: 084145 Name: ORBOST Lat: -37.69 Lon: 148.47 Height: 62.65 m
Data from the previous 72 hours. | See also: Recent months at Orbost
Date/Time
EDT
Temp
°C
App
Temp
°C
Dew
Point
°C
Rel
Hum
%
Delta-T
°C
Wind Press
QNH
hPa
Press
MSL
hPa
Rain since
9am
mm
Dir  Spd
km/h
Gust
km/h
Spd
kts
Gust
kts
18/12:00pm 16.7 15.1 8.9 60 4.0 SSE 7 11 4 6 1012.6 1012.5 0.0
18/11:30am 15.7 14.1 8.9 64 3.5 SE 7 11 4 6 1013.1 1013.0 0.0
18/11:00am 14.4 12.7 8.4 67 3.0 SSE 7 9 4 5 1013.8 1013.7 0.0
18/10:30am 14.0 12.1 7.5 65 3.2 S 7 11 4 6 1014.4 1014.4 0.0
18/10:00am 14.2 13.3 7.9 66 3.1 WSW 2 6 1 3 1014.7 1014.7 0.0
18/09:30am 12.2 10.6 6.5 68 2.7 WSW 4 7 2 4 1015.2 1015.2 0.0
18/09:00am 11.4 9.2 6.3 71 2.4 W 7 11 4 6 1015.4 1015.4 4.0
18/08:30am 11.0 8.4 6.2 72 2.2 W 9 15 5 8 1015.6 1015.6 4.0
18/08:00am 10.2 7.6 6.2 76 1.9 NW 9 15 5 8 1015.8 1015.8 4.0
18/07:30am 9.5 6.9 5.9 78 1.7 NNW 9 15 5 8 1015.7 1015.7 4.0
18/07:00am 8.6 5.9 5.7 82 1.3 NNW 9 11 5 6 1015.4 1015.4 4.0
18/06:30am 7.7 4.9 5.3 85 1.1 NNW 9 11 5 6 1014.9 1014.9 4.0
18/06:00am 7.4 5.0 5.2 86 1.0 NNW 7 11 4 6 1014.7 1014.7 4.0
18/05:30am 7.2 4.7 4.9 85 1.0 NW 7 11 4 6 1014.6 1014.6 4.0
18/05:00am 8.4 6.3 5.7 83 1.2 WNW 6 11 3 6 1014.1 1014.1 4.0
18/04:30am 8.2 6.1 5.7 84 1.1 NW 6 7 3 4 1013.9 1013.8 4.0
18/04:00am 8.8 6.5 5.9 82 1.3 NW 7 13 4 7 1013.9 1013.8 4.0
18/03:30am 9.1 6.5 6.2 82 1.3 WNW 9 13 5 7 1014.0 1014.0 4.0
18/03:00am 9.4 6.0 6.1 80 1.5 W 13 19 7 10 1014.0 1014.0 4.0
18/02:30am 9.5 6.9 5.9 78 1.7 WNW 9 17 5 9 1014.3 1014.3 4.0
18/02:00am 9.6 7.0 6.1 79 1.6 WNW 9 13 5 7 1014.5 1014.5 4.0
18/01:30am 9.8 7.2 6.2 78 1.7 WNW 9 19 5 10 1014.8 1014.8 4.0
18/01:00am 10.1 7.2 6.4 78 1.7 W 11 22 6 12 1015.0 1015.0 4.0
18/12:30am 11.1 7.2 7.0 76 2.0 W 17 28 9 15 1015.0 1015.0 4.0
18/12:00am 11.5 7.0 7.0 74 2.2 W 20 33 11 18 1014.7 1014.7 4.0
 
Date/Time
EDT
Temp
°C
App
Temp
°C
Dew
Point
°C
Rel
Hum
%
Delta-T
°C
Wind Press
QNH
hPa
Press
MSL
hPa
Rain since
9am
mm
Dir  Spd
km/h
Gust
km/h
Spd
kts
Gust
kts
17/11:30pm 11.5 7.5 6.8 73 2.2 W 17 32 9 17 1014.4 1014.4 4.0
17/11:00pm 11.6 7.3 6.9 73 2.2 W 19 32 10 17 1014.0 1014.0 4.0
17/10:30pm 11.4 7.4 6.5 72 2.3 W 17 26 9 14 1013.6 1013.5 4.0
17/10:00pm 11.2 7.5 6.3 72 2.3 WNW 15 24 8 13 1013.0 1012.9 4.0
17/09:30pm 11.3 6.7 6.4 72 2.3 W 20 33 11 18 1012.6 1012.5 4.0
17/09:00pm 10.4 7.8 6.2 75 2.0 WNW 9 15 5 8 1012.0 1011.9 4.0
17/08:30pm 10.7 7.4 6.5 75 2.0 WNW 13 28 7 15 1011.4 1011.3 4.0
17/08:00pm 11.1 8.3 7.0 76 2.0 WNW 11 17 6 9 1011.1 1011.0 3.8
17/07:30pm 11.0 8.7 7.3 78 1.8 WNW 9 17 5 9 1010.5 1010.4 3.8
17/07:00pm 11.0 9.0 7.1 77 1.9 WNW 7 11 4 6 1009.8 1009.7 3.8
17/06:30pm 11.2 9.2 7.1 76 2.0 WNW 7 11 4 6 1009.4 1009.3 3.8
17/06:00pm 11.2 8.2 7.5 78 1.8 W 13 19 7 10 1009.2 1009.1 3.8
17/05:30pm 10.5 6.8 6.5 76 1.9 WNW 15 41 8 22 1008.7 1008.6 3.8
17/05:00pm 12.4 6.9 7.5 72 2.4 SW 26 39 14 21 1007.9 1007.8 2.6
17/04:30pm 12.8 7.5 6.8 67 2.9 SW 24 35 13 19 1007.2 1007.2 2.6
17/04:02pm 12.1 6.2 7.4 73 2.3 SW 28 48 15 26 1006.6 1006.6 2.6
17/04:00pm 12.0 6.6 7.9 76 2.0 SW 26 41 14 22 1006.5 1006.5 2.6
17/03:55pm 11.7 6.6 7.6 76 2.0 SW 24 41 13 22 1006.5 1006.5 2.4
17/03:30pm 14.2 11.6 7.9 66 3.1 W 11 17 6 9 1006.5 1006.5 1.6
17/03:00pm 12.8 11.2 8.1 73 2.3 SW 6 9 3 5 1006.6 1006.6 1.6
17/02:30pm 10.8 9.1 7.5 80 1.6 W 6 9 3 5 1007.2 1007.2 1.6
17/02:00pm 9.1 2.8 5.5 78 1.6 SW 28 43 15 23 1007.5 1007.4 1.4
17/01:30pm 14.0 11.3 7.3 64 3.3 SW 11 28 6 15 1006.5 1006.5 1.0
17/01:00pm 13.9 10.3 8.3 69 2.8 SW 17 24 9 13 1006.5 1006.5 1.0
17/12:30pm 13.6 10.5 8.7 72 2.5 WSW 15 24 8 13 1006.9 1006.9 1.0
17/12:00pm 12.2 8.5 8.1 76 2.0 WSW 17 22 9 12 1007.4 1007.3 1.0
17/11:30am 9.9 5.8 7.8 87 1.0 W 19 32 10 17 1007.4 1007.3 1.0
17/11:00am 10.4 6.0 7.5 82 1.4 W 20 32 11 17 1007.0 1007.0 0.4
17/10:30am 11.1 6.7 7.4 78 1.8 WSW 20 33 11 18 1007.1 1007.1 0.0
17/10:00am 11.8 5.0 7.9 77 1.9 SW 33 43 18 23 1006.7 1006.7 0.0
17/09:50am 12.7 8.9 9.2 79 1.8 SW 19 46 10 25 1006.8 1006.8 0.0
17/09:30am 12.7 11.6 10.8 88 1.0 NE 7 13 4 7 1005.9 1005.9 0.0
17/09:00am 10.9 9.8 9.8 93 0.6 NNE 6 17 3 9 1006.1 1006.1 5.8
17/08:30am 10.3 8.9 9.5 95 0.4 NNE 7 11 4 6 1005.8 1005.8 3.2
17/08:00am 9.5 8.9 9.0 97 0.2 NNW 2 2 1 1 1005.8 1005.8 3.2
17/07:30am 9.2 7.8 8.7 97 0.2 W 6 7 3 4 1005.5 1005.5 3.0
17/07:00am 9.2 8.2 8.7 97 0.2 NW 4 6 2 3 1005.1 1005.1 3.0
17/06:30am 9.2 8.5 8.7 97 0.2 N 2 6 1 3 1005.0 1005.0 3.0
17/06:00am 8.6 7.8 8.2 97 0.2 WSW 2 4 1 2 1005.3 1005.3 3.0
17/05:30am 9.1 8.0 8.6 97 0.2 ENE 4 6 2 3 1005.5 1005.5 3.0
17/05:00am 9.2 8.1 8.6 96 0.3 ENE 4 6 2 3 1005.7 1005.7 3.0
17/04:30am 9.6 9.0 9.1 97 0.2 NNE 2 4 1 2 1006.4 1006.4 3.0
17/04:00am 9.3 9.0 8.8 97 0.2 CALM 0 0 0 0 1006.8 1006.8 3.0
17/03:30am 8.1 7.5 7.3 95 0.4 CALM 0 2 0 1 1007.0 1007.0 3.0
17/03:00am 9.1 8.7 8.2 94 0.4 CALM 0 0 0 0 1007.2 1007.2 3.0
17/02:30am 9.9 9.1 8.2 89 0.8 NNW 2 4 1 2 1007.5 1007.4 3.0
17/02:00am 10.9 9.2 8.5 85 1.2 N 7 9 4 5 1007.7 1007.6 3.0
17/01:30am 11.6 10.5 8.5 81 1.5 NNW 4 6 2 3 1008.3 1008.2 3.0
17/01:00am 11.9 10.3 8.9 82 1.5 N 7 9 4 5 1008.7 1008.6 3.0
17/12:30am 12.2 10.8 8.9 80 1.7 NNW 6 9 3 5 1008.9 1008.8 3.0
17/12:00am 11.9 10.4 9.3 84 1.3 NNW 7 9 4 5 1009.0 1008.9 3.0
 
Date/Time
EDT
Temp
°C
App
Temp
°C
Dew
Point
°C
Rel
Hum
%
Delta-T
°C
Wind Press
QNH
hPa
Press
MSL
hPa
Rain since
9am
mm
Dir  Spd
km/h
Gust
km/h
Spd
kts
Gust
kts
16/11:30pm 12.0 10.5 9.0 82 1.5 NNW 7 11 4 6 1009.1 1009.0 3.0
16/11:00pm 12.8 10.7 9.8 82 1.5 WNW 11 17 6 9 1009.1 1009.0 3.0
16/10:30pm 12.7 11.5 11.6 93 0.6 WNW 9 13 5 7 1009.0 1008.9 3.0
16/10:00pm 12.8 11.9 12.6 99 0.1 NW 9 15 5 8 1009.0 1008.9 3.0
16/09:30pm 11.5 10.7 11.2 98 0.2 N 6 7 3 4 1008.2 1008.1 3.0
16/09:00pm 12.4 12.3 12.2 99 0.1 N 4 6 2 3 1008.1 1008.0 3.0
16/08:30pm 12.7 12.6 12.2 97 0.3 ENE 4 6 2 3 1007.7 1007.6 3.0
16/08:00pm 13.6 13.8 13.0 96 0.3 E 4 6 2 3 1007.5 1007.4 3.0
16/07:30pm 14.3 14.7 13.7 96 0.3 ESE 4 6 2 3 1008.0 1007.9 3.0
16/07:00pm 14.7 15.1 13.7 94 0.6 SE 4 9 2 5 1007.8 1007.7 3.0
16/06:30pm 14.6 14.9 13.5 93 0.6 SE 4 6 2 3 1007.8 1007.7 3.0
16/06:00pm 15.0 16.1 13.5 91 0.8 CALM 0 4 0 2 1007.7 1007.6 3.0
16/05:30pm 15.1 15.4 13.5 90 0.9 E 4 6 2 3 1007.8 1007.7 3.0
16/05:00pm 15.0 15.3 13.5 91 0.8 ESE 4 6 2 3 1007.9 1007.8 3.0
16/04:30pm 15.0 15.7 13.5 91 0.8 NE 2 6 1 3 1008.0 1007.9 3.0
16/04:00pm 14.6 14.5 13.3 92 0.7 NNE 6 9 3 5 1008.5 1008.4 3.0
16/03:30pm 14.2 14.1 13.4 95 0.4 NNE 6 9 3 5 1009.2 1009.1 3.0
16/03:00pm 13.8 14.7 12.9 94 0.5 CALM 0 0 0 0 1009.8 1009.7 2.8
16/02:30pm 14.0 14.2 12.9 93 0.6 S 4 6 2 3 1010.3 1010.2 1.8
16/02:00pm 14.3 14.1 12.9 91 0.8 S 6 9 3 5 1010.3 1010.2 1.4
16/01:30pm 14.5 14.2 12.7 89 1.0 S 6 9 3 5 1010.1 1010.0 1.0
16/01:00pm 14.9 14.0 12.6 86 1.3 SE 9 13 5 7 1009.5 1009.4 1.0
16/12:30pm 14.8 14.5 13.2 90 0.9 SSE 7 15 4 8 1009.7 1009.6 1.0
16/12:00pm 14.2 13.7 12.1 87 1.1 SE 6 9 3 5 1010.5 1010.4 0.2
16/11:30am 15.1 14.6 10.9 76 2.2 SE 4 7 2 4 1010.4 1010.3 0.0
16/11:00am 16.1 14.4 9.8 66 3.3 ESE 9 13 5 7 1010.4 1010.3 0.0
16/10:30am 16.0 14.2 9.4 65 3.4 SE 9 19 5 10 1010.6 1010.5 0.0
16/10:00am 16.1 14.9 10.2 68 3.1 SE 7 15 4 8 1011.0 1010.9 0.0
16/09:30am 15.2 14.1 9.8 70 2.8 SE 6 11 3 6 1011.4 1011.3 0.0
16/09:00am 14.5 13.3 9.5 72 2.6 SE 6 9 3 5 1011.5 1011.4 0.0
16/08:30am 13.5 12.3 9.7 78 2.0 ESE 6 9 3 5 1011.8 1011.7 0.0
16/08:00am 13.0 12.3 10.2 83 1.5 SE 4 6 2 3 1012.1 1012.0 0.0
16/07:30am 12.1 11.3 9.8 86 1.2 SE 4 4 2 2 1012.0 1011.9 0.0
16/07:00am 12.1 11.6 9.5 84 1.3 ESE 2 6 1 3 1012.0 1011.9 0.0
16/06:30am 12.2 10.8 9.0 81 1.6 NE 6 13 3 7 1012.1 1012.0 0.0
16/06:00am 11.6 10.7 9.3 86 1.2 ENE 4 6 2 3 1012.5 1012.4 0.0
16/05:30am 11.4 10.1 9.1 86 1.2 SSE 6 9 3 5 1012.6 1012.5 0.0
16/05:00am 11.6 10.2 9.0 84 1.3 ENE 6 6 3 3 1012.3 1012.2 0.0
16/04:30am 11.9 11.8 9.6 86 1.2 CALM 0 0 0 0 1012.8 1012.7 0.0
16/04:00am 12.0 11.5 9.4 84 1.3 NE 2 4 1 2 1012.8 1012.7 0.0
16/03:30am 11.9 11.5 9.8 87 1.1 NW 2 6 1 3 1013.0 1012.9 0.0
16/03:00am 12.2 11.4 9.6 84 1.3 NW 4 6 2 3 1013.6 1013.5 0.0
16/02:30am 12.6 12.0 8.9 78 1.9 N 2 4 1 2 1013.3 1013.2 0.0
16/02:00am 12.6 11.3 9.1 79 1.8 N 6 9 3 5 1013.6 1013.5 0.0
16/01:30am 12.7 11.4 9.2 79 1.8 N 6 7 3 4 1014.2 1014.2 0.0
16/01:00am 12.5 11.3 9.5 82 1.5 N 6 7 3 4 1014.6 1014.6 0.0
16/12:30am 12.4 11.3 9.8 84 1.3 N 6 6 3 3 1014.9 1014.9 0.0
16/12:00am 12.4 11.6 9.8 84 1.3 N 4 6 2 3 1014.7 1014.7 0.0
 
Date/Time
EDT
Temp
°C
App
Temp
°C
Dew
Point
°C
Rel
Hum
%
Delta-T
°C
Wind Press
QNH
hPa
Press
MSL
hPa
Rain since
9am
mm
Dir  Spd
km/h
Gust
km/h
Spd
kts
Gust
kts
15/11:30pm 12.3 11.6 10.0 86 1.2 N 4 4 2 2 1014.9 1014.9 0.0
15/11:00pm 12.1 11.5 10.3 89 0.9 NNW 4 6 2 3 1015.1 1015.1 0.0
15/10:30pm 12.1 11.5 10.5 90 0.8 NNW 4 6 2 3 1015.1 1015.1 0.0
15/10:00pm 12.3 11.7 10.4 88 1.0 NNW 4 4 2 2 1015.0 1015.0 0.0
15/09:30pm 12.4 12.5 10.3 87 1.1 CALM 0 2 0 1 1015.3 1015.3 0.0
15/09:00pm 12.5 11.8 10.2 86 1.2 WNW 4 6 2 3 1014.9 1014.9 0.0
15/08:30pm 12.8 12.3 10.7 87 1.1 W 4 6 2 3 1015.2 1015.2 0.0
15/08:00pm 12.9 11.9 10.3 84 1.3 W 6 7 3 4 1014.7 1014.7 0.0
15/07:30pm 13.0 12.1 10.5 85 1.3 SW 6 7 3 4 1014.1 1014.1 0.0
15/07:00pm 13.2 12.2 10.4 83 1.5 WSW 6 7 3 4 1013.6 1013.5 0.0
15/06:30pm 13.4 13.2 10.4 82 1.6 SSW 2 6 1 3 1013.1 1013.0 0.0
15/06:00pm 13.5 12.6 10.7 83 1.5 SSW 6 9 3 5 1013.2 1013.1 0.0
15/05:30pm 13.6 12.2 10.8 83 1.5 SSW 9 15 5 8 1013.0 1012.9 0.0
15/05:00pm 13.9 12.5 10.9 82 1.6 S 9 13 5 7 1012.7 1012.6 0.0
15/04:30pm 14.1 12.8 11.1 82 1.6 SSW 9 13 5 7 1012.3 1012.2 0.0
15/04:00pm 14.5 13.5 11.1 80 1.8 SSE 7 13 4 7 1012.2 1012.1 0.0
15/03:30pm 14.7 13.0 11.3 80 1.8 S 11 17 6 9 1012.2 1012.1 0.0
15/03:00pm 15.1 13.9 11.5 79 1.9 SSE 9 15 5 8 1012.3 1012.2 0.0
15/02:30pm 14.7 13.1 11.7 82 1.6 S 11 17 6 9 1012.6 1012.5 0.0
15/02:00pm 14.6 13.0 11.7 83 1.6 S 11 17 6 9 1012.7 1012.6 0.0
15/01:30pm 14.8 13.6 11.6 81 1.7 S 9 13 5 7 1012.6 1012.5 0.0
15/01:00pm 15.3 14.6 12.1 81 1.7 SE 7 11 4 6 1012.8 1012.7 0.0
15/12:30pm 15.3 14.6 11.9 80 1.8 SSE 7 11 4 6 1012.9 1012.8 0.0

Other formats

Comma delimited format used in spreadsheet applications
http://www.bom.gov.au/fwo/IDV60801/IDV60801.95918.axf

JavaScript Object Notation format (JSON) in row-major order
http://www.bom.gov.au/fwo/IDV60801/IDV60801.95918.json

Data quality

Most of these data are generated automatically and are frequently updated. Quality checks on data are not normally performed. It is possible for incorrect values to appear. Refer to information at About Latest Weather Observations and please check the disclaimer before using these data.